sensor_id;sensor_type;location;lat;lon;timestamp;P1;durP1;ratioP1;P2;durP2;ratioP2
76477;SDS011;65309;49.790;18.972;2024-03-29T00:01:12;0.85;;;0.52;;
76477;SDS011;65309;49.790;18.972;2024-03-29T00:06:27;0.90;;;0.70;;
76477;SDS011;65309;49.790;18.972;2024-03-29T00:11:28;0.70;;;0.52;;
76477;SDS011;65309;49.790;18.972;2024-03-29T00:16:30;1.33;;;0.70;;
76477;SDS011;65309;49.790;18.972;2024-03-29T00:21:32;1.98;;;1.17;;
76477;SDS011;65309;49.790;18.972;2024-03-29T00:26:34;1.55;;;0.73;;
76477;SDS011;65309;49.790;18.972;2024-03-29T00:31:35;1.52;;;0.88;;
76477;SDS011;65309;49.790;18.972;2024-03-29T00:36:40;1.88;;;1.17;;
76477;SDS011;65309;49.790;18.972;2024-03-29T00:41:42;1.05;;;0.70;;
76477;SDS011;65309;49.790;18.972;2024-03-29T00:46:43;1.83;;;1.10;;
76477;SDS011;65309;49.790;18.972;2024-03-29T00:51:45;1.70;;;1.17;;
76477;SDS011;65309;49.790;18.972;2024-03-29T00:56:47;1.60;;;1.00;;
76477;SDS011;65309;49.790;18.972;2024-03-29T01:01:48;2.08;;;1.15;;
76477;SDS011;65309;49.790;18.972;2024-03-29T01:06:51;1.88;;;1.20;;
76477;SDS011;65309;49.790;18.972;2024-03-29T01:11:52;1.65;;;1.17;;
76477;SDS011;65309;49.790;18.972;2024-03-29T01:16:54;5.03;;;1.48;;
76477;SDS011;65309;49.790;18.972;2024-03-29T01:21:57;1.60;;;1.27;;
76477;SDS011;65309;49.790;18.972;2024-03-29T01:26:58;1.90;;;1.50;;
76477;SDS011;65309;49.790;18.972;2024-03-29T01:31:59;2.38;;;1.40;;
76477;SDS011;65309;49.790;18.972;2024-03-29T01:37:02;1.13;;;0.90;;
76477;SDS011;65309;49.790;18.972;2024-03-29T01:42:04;1.73;;;1.08;;
76477;SDS011;65309;49.790;18.972;2024-03-29T01:47:05;1.98;;;1.40;;
76477;SDS011;65309;49.790;18.972;2024-03-29T01:52:08;1.45;;;1.30;;
76477;SDS011;65309;49.790;18.972;2024-03-29T01:57:10;1.55;;;1.35;;
76477;SDS011;65309;49.790;18.972;2024-03-29T02:02:12;3.10;;;1.75;;
76477;SDS011;65309;49.790;18.972;2024-03-29T02:07:16;2.00;;;1.08;;
76477;SDS011;65309;49.790;18.972;2024-03-29T02:17:19;2.45;;;1.60;;
76477;SDS011;65309;49.790;18.972;2024-03-29T02:22:21;2.17;;;1.20;;
76477;SDS011;65309;49.790;18.972;2024-03-29T02:27:26;1.48;;;1.10;;
76477;SDS011;65309;49.790;18.972;2024-03-29T02:32:28;1.30;;;1.00;;
76477;SDS011;65309;49.790;18.972;2024-03-29T02:37:29;1.77;;;1.20;;
76477;SDS011;65309;49.790;18.972;2024-03-29T02:42:32;5.68;;;1.27;;
76477;SDS011;65309;49.790;18.972;2024-03-29T02:47:33;1.10;;;0.93;;
76477;SDS011;65309;49.790;18.972;2024-03-29T02:52:34;1.75;;;1.30;;
76477;SDS011;65309;49.790;18.972;2024-03-29T02:57:37;0.77;;;0.68;;
76477;SDS011;65309;49.790;18.972;2024-03-29T03:02:39;1.42;;;0.70;;
76477;SDS011;65309;49.790;18.972;2024-03-29T03:07:40;0.98;;;0.70;;
76477;SDS011;65309;49.790;18.972;2024-03-29T03:13:01;1.20;;;0.80;;
76477;SDS011;65309;49.790;18.972;2024-03-29T03:18:02;1.35;;;0.82;;
76477;SDS011;65309;49.790;18.972;2024-03-29T03:23:04;0.45;;;0.40;;
76477;SDS011;65309;49.790;18.972;2024-03-29T03:28:06;3.67;;;1.20;;
76477;SDS011;65309;49.790;18.972;2024-03-29T03:33:08;1.08;;;0.63;;
76477;SDS011;65309;49.790;18.972;2024-03-29T03:38:09;0.82;;;0.55;;
76477;SDS011;65309;49.790;18.972;2024-03-29T03:43:12;4.05;;;1.20;;
76477;SDS011;65309;49.790;18.972;2024-03-29T03:48:13;1.10;;;0.50;;
76477;SDS011;65309;49.790;18.972;2024-03-29T03:53:15;1.15;;;0.80;;
76477;SDS011;65309;49.790;18.972;2024-03-29T03:58:18;1.50;;;0.82;;
76477;SDS011;65309;49.790;18.972;2024-03-29T04:03:19;1.67;;;0.68;;
76477;SDS011;65309;49.790;18.972;2024-03-29T04:08:20;0.57;;;0.57;;
76477;SDS011;65309;49.790;18.972;2024-03-29T04:13:26;2.97;;;0.70;;
76477;SDS011;65309;49.790;18.972;2024-03-29T04:18:27;0.88;;;0.88;;
76477;SDS011;65309;49.790;18.972;2024-03-29T04:23:29;0.68;;;0.68;;
76477;SDS011;65309;49.790;18.972;2024-03-29T04:28:32;0.63;;;0.57;;
76477;SDS011;65309;49.790;18.972;2024-03-29T04:33:33;1.17;;;0.75;;
76477;SDS011;65309;49.790;18.972;2024-03-29T04:38:35;0.30;;;0.30;;
76477;SDS011;65309;49.790;18.972;2024-03-29T04:43:37;0.65;;;0.65;;
76477;SDS011;65309;49.790;18.972;2024-03-29T04:48:39;0.68;;;0.50;;
76477;SDS011;65309;49.790;18.972;2024-03-29T04:53:46;0.80;;;0.63;;
76477;SDS011;65309;49.790;18.972;2024-03-29T04:58:49;1.20;;;0.50;;
76477;SDS011;65309;49.790;18.972;2024-03-29T05:03:50;1.27;;;0.98;;
76477;SDS011;65309;49.790;18.972;2024-03-29T05:08:52;1.48;;;0.70;;
76477;SDS011;65309;49.790;18.972;2024-03-29T05:13:54;0.70;;;0.70;;
76477;SDS011;65309;49.790;18.972;2024-03-29T05:18:57;0.25;;;0.25;;
76477;SDS011;65309;49.790;18.972;2024-03-29T05:23:58;1.00;;;0.73;;
76477;SDS011;65309;49.790;18.972;2024-03-29T05:29:01;0.98;;;0.93;;
76477;SDS011;65309;49.790;18.972;2024-03-29T05:34:04;0.80;;;0.80;;
76477;SDS011;65309;49.790;18.972;2024-03-29T05:39:06;0.77;;;0.75;;
76477;SDS011;65309;49.790;18.972;2024-03-29T05:44:08;1.00;;;0.50;;
76477;SDS011;65309;49.790;18.972;2024-03-29T05:49:10;0.73;;;0.50;;
76477;SDS011;65309;49.790;18.972;2024-03-29T05:54:12;0.65;;;0.65;;
76477;SDS011;65309;49.790;18.972;2024-03-29T05:59:14;0.88;;;0.80;;
76477;SDS011;65309;49.790;18.972;2024-03-29T06:04:16;1.05;;;0.90;;
76477;SDS011;65309;49.790;18.972;2024-03-29T06:09:20;3.92;;;1.00;;
76477;SDS011;65309;49.790;18.972;2024-03-29T06:14:23;3.17;;;0.90;;
76477;SDS011;65309;49.790;18.972;2024-03-29T06:19:43;2.50;;;1.13;;
76477;SDS011;65309;49.790;18.972;2024-03-29T06:24:44;0.88;;;0.60;;
76477;SDS011;65309;49.790;18.972;2024-03-29T06:29:50;1.48;;;0.80;;
76477;SDS011;65309;49.790;18.972;2024-03-29T06:34:51;0.80;;;0.80;;
76477;SDS011;65309;49.790;18.972;2024-03-29T06:39:53;0.60;;;0.52;;
76477;SDS011;65309;49.790;18.972;2024-03-29T06:44:56;1.00;;;0.47;;
76477;SDS011;65309;49.790;18.972;2024-03-29T06:49:59;0.57;;;0.57;;
76477;SDS011;65309;49.790;18.972;2024-03-29T06:55:01;0.68;;;0.43;;
76477;SDS011;65309;49.790;18.972;2024-03-29T07:00:04;0.98;;;0.52;;
76477;SDS011;65309;49.790;18.972;2024-03-29T07:05:07;1.02;;;0.80;;
76477;SDS011;65309;49.790;18.972;2024-03-29T07:10:12;0.70;;;0.70;;
76477;SDS011;65309;49.790;18.972;2024-03-29T07:15:14;0.90;;;0.80;;
76477;SDS011;65309;49.790;18.972;2024-03-29T07:20:16;2.35;;;0.75;;
76477;SDS011;65309;49.790;18.972;2024-03-29T07:25:18;0.75;;;0.60;;
76477;SDS011;65309;49.790;18.972;2024-03-29T07:30:21;0.73;;;0.68;;
76477;SDS011;65309;49.790;18.972;2024-03-29T07:35:23;2.97;;;1.73;;
76477;SDS011;65309;49.790;18.972;2024-03-29T07:40:24;3.00;;;0.80;;
76477;SDS011;65309;49.790;18.972;2024-03-29T07:45:27;0.90;;;0.63;;
76477;SDS011;65309;49.790;18.972;2024-03-29T07:50:29;0.82;;;0.77;;
76477;SDS011;65309;49.790;18.972;2024-03-29T07:55:30;0.93;;;0.82;;
76477;SDS011;65309;49.790;18.972;2024-03-29T08:00:34;1.98;;;1.02;;
76477;SDS011;65309;49.790;18.972;2024-03-29T08:05:36;1.90;;;1.23;;
76477;SDS011;65309;49.790;18.972;2024-03-29T08:10:38;0.90;;;0.60;;
76477;SDS011;65309;49.790;18.972;2024-03-29T08:15:41;1.15;;;0.80;;
76477;SDS011;65309;49.790;18.972;2024-03-29T08:20:42;1.10;;;1.00;;
76477;SDS011;65309;49.790;18.972;2024-03-29T08:25:43;1.20;;;0.85;;
76477;SDS011;65309;49.790;18.972;2024-03-29T08:30:49;1.80;;;1.00;;
76477;SDS011;65309;49.790;18.972;2024-03-29T08:35:58;2.67;;;1.00;;
76477;SDS011;65309;49.790;18.972;2024-03-29T08:40:59;1.20;;;0.90;;
76477;SDS011;65309;49.790;18.972;2024-03-29T08:46:02;1.80;;;1.13;;
76477;SDS011;65309;49.790;18.972;2024-03-29T08:51:04;2.75;;;1.02;;
76477;SDS011;65309;49.790;18.972;2024-03-29T08:56:05;2.30;;;0.90;;
76477;SDS011;65309;49.790;18.972;2024-03-29T09:01:08;0.50;;;0.50;;
76477;SDS011;65309;49.790;18.972;2024-03-29T09:06:10;2.95;;;0.90;;
76477;SDS011;65309;49.790;18.972;2024-03-29T09:11:11;1.15;;;1.05;;
76477;SDS011;65309;49.790;18.972;2024-03-29T09:16:14;4.32;;;0.82;;
76477;SDS011;65309;49.790;18.972;2024-03-29T09:21:15;0.88;;;0.88;;
76477;SDS011;65309;49.790;18.972;2024-03-29T09:26:16;0.95;;;0.80;;
76477;SDS011;65309;49.790;18.972;2024-03-29T09:31:20;0.90;;;0.80;;
76477;SDS011;65309;49.790;18.972;2024-03-29T09:36:21;0.63;;;0.63;;
76477;SDS011;65309;49.790;18.972;2024-03-29T09:41:25;1.38;;;0.77;;
76477;SDS011;65309;49.790;18.972;2024-03-29T09:46:30;1.63;;;1.00;;
76477;SDS011;65309;49.790;18.972;2024-03-29T09:51:33;4.10;;;0.63;;
76477;SDS011;65309;49.790;18.972;2024-03-29T09:56:35;1.33;;;0.88;;
76477;SDS011;65309;49.790;18.972;2024-03-29T10:01:39;2.00;;;0.70;;
76477;SDS011;65309;49.790;18.972;2024-03-29T10:06:41;0.65;;;0.40;;
76477;SDS011;65309;49.790;18.972;2024-03-29T10:11:45;1.05;;;0.65;;
76477;SDS011;65309;49.790;18.972;2024-03-29T10:16:49;0.38;;;0.30;;
76477;SDS011;65309;49.790;18.972;2024-03-29T10:21:51;2.25;;;0.95;;
76477;SDS011;65309;49.790;18.972;2024-03-29T10:26:53;0.60;;;0.60;;
76477;SDS011;65309;49.790;18.972;2024-03-29T10:31:56;0.77;;;0.75;;
76477;SDS011;65309;49.790;18.972;2024-03-29T10:36:57;1.85;;;1.20;;
76477;SDS011;65309;49.790;18.972;2024-03-29T10:41:59;0.75;;;0.70;;
76477;SDS011;65309;49.790;18.972;2024-03-29T10:47:02;0.82;;;0.50;;
76477;SDS011;65309;49.790;18.972;2024-03-29T10:52:06;1.85;;;0.70;;
76477;SDS011;65309;49.790;18.972;2024-03-29T10:57:12;0.50;;;0.43;;
76477;SDS011;65309;49.790;18.972;2024-03-29T11:02:21;0.80;;;0.80;;
76477;SDS011;65309;49.790;18.972;2024-03-29T11:12:35;1.30;;;0.90;;
76477;SDS011;65309;49.790;18.972;2024-03-29T11:17:47;0.70;;;0.50;;
76477;SDS011;65309;49.790;18.972;2024-03-29T11:22:49;0.90;;;0.70;;
76477;SDS011;65309;49.790;18.972;2024-03-29T11:27:51;1.63;;;0.90;;
76477;SDS011;65309;49.790;18.972;2024-03-29T11:32:56;1.40;;;0.82;;
76477;SDS011;65309;49.790;18.972;2024-03-29T11:37:59;0.82;;;0.40;;
76477;SDS011;65309;49.790;18.972;2024-03-29T11:43:00;0.73;;;0.55;;
76477;SDS011;65309;49.790;18.972;2024-03-29T11:48:03;2.03;;;0.73;;
76477;SDS011;65309;49.790;18.972;2024-03-29T11:53:09;1.85;;;0.85;;
76477;SDS011;65309;49.790;18.972;2024-03-29T11:58:10;1.23;;;0.80;;
76477;SDS011;65309;49.790;18.972;2024-03-29T12:03:13;1.85;;;0.73;;
76477;SDS011;65309;49.790;18.972;2024-03-29T12:08:15;0.88;;;0.57;;
76477;SDS011;65309;49.790;18.972;2024-03-29T12:13:17;1.73;;;0.65;;
76477;SDS011;65309;49.790;18.972;2024-03-29T12:18:20;1.40;;;0.98;;
76477;SDS011;65309;49.790;18.972;2024-03-29T12:23:22;1.85;;;0.88;;
76477;SDS011;65309;49.790;18.972;2024-03-29T12:28:24;0.80;;;0.73;;
76477;SDS011;65309;49.790;18.972;2024-03-29T12:33:28;1.83;;;0.60;;
76477;SDS011;65309;49.790;18.972;2024-03-29T12:38:32;0.80;;;0.57;;
76477;SDS011;65309;49.790;18.972;2024-03-29T12:43:34;1.95;;;1.10;;
76477;SDS011;65309;49.790;18.972;2024-03-29T12:48:37;1.48;;;0.88;;
76477;SDS011;65309;49.790;18.972;2024-03-29T12:53:40;3.03;;;1.05;;
76477;SDS011;65309;49.790;18.972;2024-03-29T12:58:41;2.28;;;1.15;;
76477;SDS011;65309;49.790;18.972;2024-03-29T13:03:44;4.60;;;1.55;;
76477;SDS011;65309;49.790;18.972;2024-03-29T13:08:45;2.28;;;1.17;;
76477;SDS011;65309;49.790;18.972;2024-03-29T13:13:47;2.22;;;0.98;;
76477;SDS011;65309;49.790;18.972;2024-03-29T13:18:49;1.52;;;0.63;;
76477;SDS011;65309;49.790;18.972;2024-03-29T13:23:51;1.55;;;0.90;;
76477;SDS011;65309;49.790;18.972;2024-03-29T13:28:52;4.53;;;1.30;;
76477;SDS011;65309;49.790;18.972;2024-03-29T13:33:55;1.63;;;1.13;;
76477;SDS011;65309;49.790;18.972;2024-03-29T13:39:04;4.45;;;1.27;;
76477;SDS011;65309;49.790;18.972;2024-03-29T13:44:06;0.95;;;0.77;;
76477;SDS011;65309;49.790;18.972;2024-03-29T13:49:09;2.63;;;1.17;;
76477;SDS011;65309;49.790;18.972;2024-03-29T13:54:10;2.83;;;1.33;;
76477;SDS011;65309;49.790;18.972;2024-03-29T13:59:11;1.40;;;1.05;;
76477;SDS011;65309;49.790;18.972;2024-03-29T14:04:14;4.35;;;1.10;;
76477;SDS011;65309;49.790;18.972;2024-03-29T14:09:16;3.30;;;1.02;;
76477;SDS011;65309;49.790;18.972;2024-03-29T14:14:17;2.80;;;1.35;;
76477;SDS011;65309;49.790;18.972;2024-03-29T14:19:19;3.28;;;1.42;;
76477;SDS011;65309;49.790;18.972;2024-03-29T14:24:21;1.13;;;0.65;;
76477;SDS011;65309;49.790;18.972;2024-03-29T14:29:25;2.08;;;0.88;;
76477;SDS011;65309;49.790;18.972;2024-03-29T14:34:28;3.95;;;1.30;;
76477;SDS011;65309;49.790;18.972;2024-03-29T14:39:33;2.33;;;0.85;;
76477;SDS011;65309;49.790;18.972;2024-03-29T14:44:34;3.08;;;1.13;;
76477;SDS011;65309;49.790;18.972;2024-03-29T14:49:38;3.47;;;2.00;;
76477;SDS011;65309;49.790;18.972;2024-03-29T14:54:39;3.20;;;1.35;;
76477;SDS011;65309;49.790;18.972;2024-03-29T14:59:41;2.28;;;1.40;;
76477;SDS011;65309;49.790;18.972;2024-03-29T15:04:43;4.15;;;1.17;;
76477;SDS011;65309;49.790;18.972;2024-03-29T15:09:45;4.28;;;1.80;;
76477;SDS011;65309;49.790;18.972;2024-03-29T15:14:46;3.08;;;1.25;;
76477;SDS011;65309;49.790;18.972;2024-03-29T15:19:49;3.30;;;1.00;;
76477;SDS011;65309;49.790;18.972;2024-03-29T15:24:51;1.60;;;1.05;;
76477;SDS011;65309;49.790;18.972;2024-03-29T15:29:54;2.10;;;1.38;;
76477;SDS011;65309;49.790;18.972;2024-03-29T15:34:57;6.55;;;1.85;;
76477;SDS011;65309;49.790;18.972;2024-03-29T15:39:59;4.80;;;1.67;;
76477;SDS011;65309;49.790;18.972;2024-03-29T15:45:00;2.92;;;1.20;;
76477;SDS011;65309;49.790;18.972;2024-03-29T15:50:03;3.45;;;1.88;;
76477;SDS011;65309;49.790;18.972;2024-03-29T15:55:05;1.83;;;0.90;;
76477;SDS011;65309;49.790;18.972;2024-03-29T16:00:07;4.82;;;1.30;;
76477;SDS011;65309;49.790;18.972;2024-03-29T16:05:11;4.78;;;1.58;;
76477;SDS011;65309;49.790;18.972;2024-03-29T16:10:13;2.55;;;1.40;;
76477;SDS011;65309;49.790;18.972;2024-03-29T16:15:14;2.67;;;1.30;;
76477;SDS011;65309;49.790;18.972;2024-03-29T16:20:17;2.42;;;1.17;;
76477;SDS011;65309;49.790;18.972;2024-03-29T16:25:18;3.70;;;1.42;;
76477;SDS011;65309;49.790;18.972;2024-03-29T16:30:19;3.38;;;1.27;;
76477;SDS011;65309;49.790;18.972;2024-03-29T16:35:22;6.90;;;2.05;;
76477;SDS011;65309;49.790;18.972;2024-03-29T16:40:23;2.03;;;1.58;;
76477;SDS011;65309;49.790;18.972;2024-03-29T16:45:25;1.45;;;1.10;;
76477;SDS011;65309;49.790;18.972;2024-03-29T16:50:28;5.63;;;1.45;;
76477;SDS011;65309;49.790;18.972;2024-03-29T16:55:29;2.63;;;1.35;;
76477;SDS011;65309;49.790;18.972;2024-03-29T17:00:32;4.22;;;1.25;;
76477;SDS011;65309;49.790;18.972;2024-03-29T17:05:35;6.03;;;1.63;;
76477;SDS011;65309;49.790;18.972;2024-03-29T17:10:36;5.07;;;1.55;;
76477;SDS011;65309;49.790;18.972;2024-03-29T17:15:38;4.53;;;1.92;;
76477;SDS011;65309;49.790;18.972;2024-03-29T17:20:40;3.50;;;1.35;;
76477;SDS011;65309;49.790;18.972;2024-03-29T17:25:42;3.22;;;1.33;;
76477;SDS011;65309;49.790;18.972;2024-03-29T17:30:43;5.72;;;1.92;;
76477;SDS011;65309;49.790;18.972;2024-03-29T17:35:46;4.65;;;1.38;;
76477;SDS011;65309;49.790;18.972;2024-03-29T17:40:47;3.78;;;1.58;;
76477;SDS011;65309;49.790;18.972;2024-03-29T17:45:48;3.92;;;1.40;;
76477;SDS011;65309;49.790;18.972;2024-03-29T17:50:51;2.42;;;1.20;;
76477;SDS011;65309;49.790;18.972;2024-03-29T17:55:52;3.55;;;1.60;;
76477;SDS011;65309;49.790;18.972;2024-03-29T18:00:54;2.13;;;1.30;;
76477;SDS011;65309;49.790;18.972;2024-03-29T18:10:59;5.40;;;1.70;;
76477;SDS011;65309;49.790;18.972;2024-03-29T18:16:00;3.67;;;1.70;;
76477;SDS011;65309;49.790;18.972;2024-03-29T18:21:04;3.58;;;1.80;;
76477;SDS011;65309;49.790;18.972;2024-03-29T18:26:06;5.38;;;1.85;;
76477;SDS011;65309;49.790;18.972;2024-03-29T18:31:07;3.40;;;1.00;;
76477;SDS011;65309;49.790;18.972;2024-03-29T18:36:13;2.90;;;1.90;;
76477;SDS011;65309;49.790;18.972;2024-03-29T18:41:15;3.42;;;1.40;;
76477;SDS011;65309;49.790;18.972;2024-03-29T18:46:20;6.55;;;1.98;;
76477;SDS011;65309;49.790;18.972;2024-03-29T18:51:23;1.38;;;0.90;;
76477;SDS011;65309;49.790;18.972;2024-03-29T18:56:24;4.28;;;1.83;;
76477;SDS011;65309;49.790;18.972;2024-03-29T19:01:26;4.10;;;1.85;;
76477;SDS011;65309;49.790;18.972;2024-03-29T19:06:29;2.20;;;1.35;;
76477;SDS011;65309;49.790;18.972;2024-03-29T19:11:32;3.35;;;1.23;;
76477;SDS011;65309;49.790;18.972;2024-03-29T19:16:33;1.83;;;1.38;;
76477;SDS011;65309;49.790;18.972;2024-03-29T19:21:36;9.90;;;2.13;;
76477;SDS011;65309;49.790;18.972;2024-03-29T19:26:39;3.83;;;1.80;;
76477;SDS011;65309;49.790;18.972;2024-03-29T19:31:43;2.45;;;1.63;;
76477;SDS011;65309;49.790;18.972;2024-03-29T19:36:46;7.38;;;1.50;;
76477;SDS011;65309;49.790;18.972;2024-03-29T19:41:49;5.50;;;1.42;;
76477;SDS011;65309;49.790;18.972;2024-03-29T19:46:51;3.70;;;1.33;;
76477;SDS011;65309;49.790;18.972;2024-03-29T19:51:54;5.20;;;1.60;;
76477;SDS011;65309;49.790;18.972;2024-03-29T19:56:56;6.25;;;1.23;;
76477;SDS011;65309;49.790;18.972;2024-03-29T20:01:57;3.08;;;1.70;;
76477;SDS011;65309;49.790;18.972;2024-03-29T20:06:59;3.42;;;1.58;;
76477;SDS011;65309;49.790;18.972;2024-03-29T20:12:01;3.70;;;1.23;;
76477;SDS011;65309;49.790;18.972;2024-03-29T20:17:02;5.82;;;1.58;;
76477;SDS011;65309;49.790;18.972;2024-03-29T20:22:05;6.40;;;1.90;;
76477;SDS011;65309;49.790;18.972;2024-03-29T20:27:08;5.00;;;1.52;;
76477;SDS011;65309;49.790;18.972;2024-03-29T20:32:10;8.80;;;1.88;;
76477;SDS011;65309;49.790;18.972;2024-03-29T20:37:13;4.43;;;1.70;;
76477;SDS011;65309;49.790;18.972;2024-03-29T20:42:14;2.17;;;1.20;;
76477;SDS011;65309;49.790;18.972;2024-03-29T20:47:16;2.42;;;1.60;;
76477;SDS011;65309;49.790;18.972;2024-03-29T20:52:19;5.03;;;1.48;;
76477;SDS011;65309;49.790;18.972;2024-03-29T20:57:20;2.40;;;1.85;;
76477;SDS011;65309;49.790;18.972;2024-03-29T21:02:22;7.68;;;2.35;;
76477;SDS011;65309;49.790;18.972;2024-03-29T21:07:43;3.67;;;1.67;;
76477;SDS011;65309;49.790;18.972;2024-03-29T21:12:46;5.85;;;1.48;;
76477;SDS011;65309;49.790;18.972;2024-03-29T21:17:49;3.45;;;2.65;;
76477;SDS011;65309;49.790;18.972;2024-03-29T21:22:54;3.97;;;1.90;;
76477;SDS011;65309;49.790;18.972;2024-03-29T21:27:56;13.57;;;2.17;;
76477;SDS011;65309;49.790;18.972;2024-03-29T21:33:03;3.17;;;1.58;;
76477;SDS011;65309;49.790;18.972;2024-03-29T21:38:06;6.60;;;1.77;;
76477;SDS011;65309;49.790;18.972;2024-03-29T21:43:08;6.00;;;1.60;;
76477;SDS011;65309;49.790;18.972;2024-03-29T21:53:13;5.00;;;1.73;;
76477;SDS011;65309;49.790;18.972;2024-03-29T21:58:14;5.20;;;1.75;;
76477;SDS011;65309;49.790;18.972;2024-03-29T22:03:15;3.97;;;1.30;;
76477;SDS011;65309;49.790;18.972;2024-03-29T22:08:18;6.88;;;2.00;;
76477;SDS011;65309;49.790;18.972;2024-03-29T22:13:19;8.63;;;1.77;;
76477;SDS011;65309;49.790;18.972;2024-03-29T22:18:21;5.60;;;1.75;;
76477;SDS011;65309;49.790;18.972;2024-03-29T22:23:24;7.22;;;2.13;;
76477;SDS011;65309;49.790;18.972;2024-03-29T22:28:25;6.90;;;2.85;;
76477;SDS011;65309;49.790;18.972;2024-03-29T22:33:26;5.53;;;2.13;;
76477;SDS011;65309;49.790;18.972;2024-03-29T22:38:29;5.90;;;2.28;;
76477;SDS011;65309;49.790;18.972;2024-03-29T22:43:30;5.60;;;2.00;;
76477;SDS011;65309;49.790;18.972;2024-03-29T22:48:32;8.20;;;1.58;;
76477;SDS011;65309;49.790;18.972;2024-03-29T22:53:34;5.28;;;2.15;;
76477;SDS011;65309;49.790;18.972;2024-03-29T22:58:36;7.35;;;2.92;;
76477;SDS011;65309;49.790;18.972;2024-03-29T23:03:37;6.60;;;2.33;;
76477;SDS011;65309;49.790;18.972;2024-03-29T23:08:40;9.90;;;2.60;;
76477;SDS011;65309;49.790;18.972;2024-03-29T23:13:44;7.05;;;1.88;;
76477;SDS011;65309;49.790;18.972;2024-03-29T23:18:45;8.60;;;2.30;;
76477;SDS011;65309;49.790;18.972;2024-03-29T23:23:49;4.95;;;1.60;;
76477;SDS011;65309;49.790;18.972;2024-03-29T23:28:51;4.90;;;2.15;;
76477;SDS011;65309;49.790;18.972;2024-03-29T23:33:52;8.05;;;2.30;;
76477;SDS011;65309;49.790;18.972;2024-03-29T23:38:55;8.68;;;3.28;;
76477;SDS011;65309;49.790;18.972;2024-03-29T23:43:57;6.90;;;2.30;;
76477;SDS011;65309;49.790;18.972;2024-03-29T23:48:58;5.65;;;1.58;;
76477;SDS011;65309;49.790;18.972;2024-03-29T23:54:01;7.75;;;2.10;;
76477;SDS011;65309;49.790;18.972;2024-03-29T23:59:02;8.20;;;1.83;;
